sensor_id;sensor_type;location;lat;lon;timestamp;temperature;humidity
28614;DHT22;15806;53.548;9.964;2023-07-20T00:00:52;15.40;99.90
28614;DHT22;15806;53.548;9.964;2023-07-20T00:02:33;15.40;99.90
28614;DHT22;15806;53.548;9.964;2023-07-20T00:04:13;15.40;99.90
28614;DHT22;15806;53.548;9.964;2023-07-20T00:05:54;15.50;99.90
28614;DHT22;15806;53.548;9.964;2023-07-20T00:07:34;15.50;99.90
28614;DHT22;15806;53.548;9.964;2023-07-20T00:09:15;15.50;99.90
28614;DHT22;15806;53.548;9.964;2023-07-20T00:10:56;15.50;99.90
28614;DHT22;15806;53.548;9.964;2023-07-20T00:12:36;15.50;99.90
28614;DHT22;15806;53.548;9.964;2023-07-20T00:14:19;15.50;99.90
28614;DHT22;15806;53.548;9.964;2023-07-20T00:15:59;15.50;99.90
28614;DHT22;15806;53.548;9.964;2023-07-20T00:17:40;15.50;99.90
28614;DHT22;15806;53.548;9.964;2023-07-20T00:19:21;15.50;99.90
28614;DHT22;15806;53.548;9.964;2023-07-20T00:21:02;15.50;99.90
28614;DHT22;15806;53.548;9.964;2023-07-20T00:22:43;15.60;99.90
28614;DHT22;15806;53.548;9.964;2023-07-20T00:24:23;15.60;99.90
28614;DHT22;15806;53.548;9.964;2023-07-20T00:26:04;15.70;99.90
28614;DHT22;15806;53.548;9.964;2023-07-20T00:27:44;15.60;99.90
28614;DHT22;15806;53.548;9.964;2023-07-20T00:29:25;15.60;99.90
28614;DHT22;15806;53.548;9.964;2023-07-20T00:31:05;15.60;99.90
28614;DHT22;15806;53.548;9.964;2023-07-20T00:32:46;15.60;99.90
28614;DHT22;15806;53.548;9.964;2023-07-20T00:34:26;15.70;99.90
28614;DHT22;15806;53.548;9.964;2023-07-20T00:36:07;15.70;99.90
28614;DHT22;15806;53.548;9.964;2023-07-20T00:37:47;15.70;99.90
28614;DHT22;15806;53.548;9.964;2023-07-20T00:39:28;15.70;99.90
28614;DHT22;15806;53.548;9.964;2023-07-20T00:41:09;15.80;99.90
28614;DHT22;15806;53.548;9.964;2023-07-20T00:42:50;15.70;99.90
28614;DHT22;15806;53.548;9.964;2023-07-20T00:44:30;15.70;99.90
28614;DHT22;15806;53.548;9.964;2023-07-20T00:46:12;15.70;99.90
28614;DHT22;15806;53.548;9.964;2023-07-20T00:47:52;15.70;99.90
28614;DHT22;15806;53.548;9.964;2023-07-20T00:49:33;15.70;99.90
28614;DHT22;15806;53.548;9.964;2023-07-20T00:51:14;15.70;99.90
28614;DHT22;15806;53.548;9.964;2023-07-20T00:52:55;15.70;99.90
28614;DHT22;15806;53.548;9.964;2023-07-20T00:54:36;15.60;99.90
28614;DHT22;15806;53.548;9.964;2023-07-20T00:56:17;15.70;99.90
28614;DHT22;15806;53.548;9.964;2023-07-20T00:57:59;15.60;99.90
28614;DHT22;15806;53.548;9.964;2023-07-20T00:59:39;15.60;99.90
28614;DHT22;15806;53.548;9.964;2023-07-20T01:01:22;15.60;99.90
28614;DHT22;15806;53.548;9.964;2023-07-20T01:03:02;15.60;99.90
28614;DHT22;15806;53.548;9.964;2023-07-20T01:04:43;15.60;99.90
28614;DHT22;15806;53.548;9.964;2023-07-20T01:09:11;15.60;99.90
28614;DHT22;15806;53.548;9.964;2023-07-20T01:10:39;15.60;99.90
28614;DHT22;15806;53.548;9.964;2023-07-20T01:14:25;15.50;99.90
28614;DHT22;15806;53.548;9.964;2023-07-20T01:16:06;15.50;99.90
28614;DHT22;15806;53.548;9.964;2023-07-20T01:17:46;15.50;99.90
28614;DHT22;15806;53.548;9.964;2023-07-20T01:19:27;15.60;99.90
28614;DHT22;15806;53.548;9.964;2023-07-20T01:21:17;15.60;99.90
28614;DHT22;15806;53.548;9.964;2023-07-20T01:31:36;15.80;99.90
28614;DHT22;15806;53.548;9.964;2023-07-20T01:33:19;15.90;99.90
28614;DHT22;15806;53.548;9.964;2023-07-20T01:35:01;16.00;99.90
28614;DHT22;15806;53.548;9.964;2023-07-20T01:39:19;16.10;99.90
28614;DHT22;15806;53.548;9.964;2023-07-20T01:41:01;16.10;99.90
28614;DHT22;15806;53.548;9.964;2023-07-20T01:42:46;16.10;99.90
28614;DHT22;15806;53.548;9.964;2023-07-20T01:44:28;16.20;99.90
28614;DHT22;15806;53.548;9.964;2023-07-20T01:46:09;16.20;99.90
28614;DHT22;15806;53.548;9.964;2023-07-20T01:47:49;16.30;99.90
28614;DHT22;15806;53.548;9.964;2023-07-20T01:49:30;16.20;99.90
28614;DHT22;15806;53.548;9.964;2023-07-20T01:51:10;16.20;99.90
28614;DHT22;15806;53.548;9.964;2023-07-20T01:52:51;16.30;99.90
28614;DHT22;15806;53.548;9.964;2023-07-20T01:54:31;16.30;99.90
28614;DHT22;15806;53.548;9.964;2023-07-20T01:56:13;16.40;99.90
28614;DHT22;15806;53.548;9.964;2023-07-20T01:57:54;16.40;99.90
28614;DHT22;15806;53.548;9.964;2023-07-20T01:59:35;16.40;99.90
28614;DHT22;15806;53.548;9.964;2023-07-20T02:01:15;16.70;99.90
28614;DHT22;15806;53.548;9.964;2023-07-20T02:02:56;16.60;99.90
28614;DHT22;15806;53.548;9.964;2023-07-20T02:04:36;16.70;99.90
28614;DHT22;15806;53.548;9.964;2023-07-20T02:06:17;16.70;99.90
28614;DHT22;15806;53.548;9.964;2023-07-20T02:07:57;16.70;99.90
28614;DHT22;15806;53.548;9.964;2023-07-20T02:09:38;16.80;99.90
28614;DHT22;15806;53.548;9.964;2023-07-20T02:11:18;16.80;99.90
28614;DHT22;15806;53.548;9.964;2023-07-20T02:12:59;16.80;99.90
28614;DHT22;15806;53.548;9.964;2023-07-20T02:14:39;16.90;99.90
28614;DHT22;15806;53.548;9.964;2023-07-20T02:16:20;16.90;99.90
28614;DHT22;15806;53.548;9.964;2023-07-20T02:18:00;16.90;99.90
28614;DHT22;15806;53.548;9.964;2023-07-20T02:19:41;17.00;99.90
28614;DHT22;15806;53.548;9.964;2023-07-20T02:21:22;17.10;99.90
28614;DHT22;15806;53.548;9.964;2023-07-20T02:23:02;17.20;99.90
28614;DHT22;15806;53.548;9.964;2023-07-20T02:24:43;17.10;99.90
28614;DHT22;15806;53.548;9.964;2023-07-20T02:26:23;17.20;99.90
28614;DHT22;15806;53.548;9.964;2023-07-20T02:28:04;17.10;99.90
28614;DHT22;15806;53.548;9.964;2023-07-20T02:29:45;17.20;99.90
28614;DHT22;15806;53.548;9.964;2023-07-20T02:31:25;17.30;99.90
28614;DHT22;15806;53.548;9.964;2023-07-20T02:33:07;17.30;99.90
28614;DHT22;15806;53.548;9.964;2023-07-20T02:34:47;17.40;99.90
28614;DHT22;15806;53.548;9.964;2023-07-20T02:36:28;17.40;99.90
28614;DHT22;15806;53.548;9.964;2023-07-20T02:38:08;17.50;99.90
28614;DHT22;15806;53.548;9.964;2023-07-20T02:39:49;17.40;99.90
28614;DHT22;15806;53.548;9.964;2023-07-20T02:41:32;17.40;99.90
28614;DHT22;15806;53.548;9.964;2023-07-20T02:43:13;17.40;99.90
28614;DHT22;15806;53.548;9.964;2023-07-20T02:44:53;17.40;99.90
28614;DHT22;15806;53.548;9.964;2023-07-20T02:46:34;17.30;99.90
28614;DHT22;15806;53.548;9.964;2023-07-20T02:48:16;17.40;99.90
28614;DHT22;15806;53.548;9.964;2023-07-20T02:49:56;17.30;99.90
28614;DHT22;15806;53.548;9.964;2023-07-20T02:51:37;17.50;99.90
28614;DHT22;15806;53.548;9.964;2023-07-20T02:53:18;17.50;99.90
28614;DHT22;15806;53.548;9.964;2023-07-20T02:54:58;17.50;99.90
28614;DHT22;15806;53.548;9.964;2023-07-20T02:56:39;17.50;99.90
28614;DHT22;15806;53.548;9.964;2023-07-20T02:58:19;17.50;99.90
28614;DHT22;15806;53.548;9.964;2023-07-20T03:00:00;17.50;99.90
28614;DHT22;15806;53.548;9.964;2023-07-20T03:01:41;17.40;99.90
28614;DHT22;15806;53.548;9.964;2023-07-20T03:03:21;17.50;99.90
28614;DHT22;15806;53.548;9.964;2023-07-20T03:05:02;17.50;99.90
28614;DHT22;15806;53.548;9.964;2023-07-20T03:06:42;17.50;99.90
28614;DHT22;15806;53.548;9.964;2023-07-20T03:08:23;17.40;99.90
28614;DHT22;15806;53.548;9.964;2023-07-20T03:10:04;17.40;99.90
28614;DHT22;15806;53.548;9.964;2023-07-20T03:11:44;17.40;99.90
28614;DHT22;15806;53.548;9.964;2023-07-20T03:13:25;17.60;99.90
28614;DHT22;15806;53.548;9.964;2023-07-20T03:15:06;17.40;99.90
28614;DHT22;15806;53.548;9.964;2023-07-20T03:16:47;17.50;99.90
28614;DHT22;15806;53.548;9.964;2023-07-20T03:18:27;17.60;99.90
28614;DHT22;15806;53.548;9.964;2023-07-20T03:20:08;17.60;99.90
28614;DHT22;15806;53.548;9.964;2023-07-20T03:21:49;17.60;99.90
28614;DHT22;15806;53.548;9.964;2023-07-20T03:23:29;17.70;99.90
28614;DHT22;15806;53.548;9.964;2023-07-20T03:25:10;17.60;99.90
28614;DHT22;15806;53.548;9.964;2023-07-20T03:26:50;17.60;99.90
28614;DHT22;15806;53.548;9.964;2023-07-20T03:28:31;17.60;99.90
28614;DHT22;15806;53.548;9.964;2023-07-20T03:30:11;17.70;99.90
28614;DHT22;15806;53.548;9.964;2023-07-20T03:31:52;17.60;99.90
28614;DHT22;15806;53.548;9.964;2023-07-20T03:33:33;17.50;99.90
28614;DHT22;15806;53.548;9.964;2023-07-20T03:35:14;17.60;99.90
28614;DHT22;15806;53.548;9.964;2023-07-20T03:36:54;17.60;99.90
28614;DHT22;15806;53.548;9.964;2023-07-20T03:38:35;17.50;99.90
28614;DHT22;15806;53.548;9.964;2023-07-20T03:40:16;17.70;99.90
28614;DHT22;15806;53.548;9.964;2023-07-20T03:41:57;17.70;99.90
28614;DHT22;15806;53.548;9.964;2023-07-20T03:43:38;17.60;99.90
28614;DHT22;15806;53.548;9.964;2023-07-20T03:45:19;17.80;99.90
28614;DHT22;15806;53.548;9.964;2023-07-20T03:46:59;17.80;99.90
28614;DHT22;15806;53.548;9.964;2023-07-20T03:48:40;17.70;99.90
28614;DHT22;15806;53.548;9.964;2023-07-20T03:50:20;17.70;99.90
28614;DHT22;15806;53.548;9.964;2023-07-20T03:52:01;17.60;99.90
28614;DHT22;15806;53.548;9.964;2023-07-20T03:53:42;17.70;99.90
28614;DHT22;15806;53.548;9.964;2023-07-20T03:55:22;17.70;99.90
28614;DHT22;15806;53.548;9.964;2023-07-20T03:57:03;17.70;99.90
28614;DHT22;15806;53.548;9.964;2023-07-20T03:58:44;17.80;99.90
28614;DHT22;15806;53.548;9.964;2023-07-20T04:00:24;17.70;99.90
28614;DHT22;15806;53.548;9.964;2023-07-20T04:02:05;17.90;99.90
28614;DHT22;15806;53.548;9.964;2023-07-20T04:03:46;18.00;99.90
28614;DHT22;15806;53.548;9.964;2023-07-20T04:05:26;17.80;99.90
28614;DHT22;15806;53.548;9.964;2023-07-20T04:07:07;17.80;99.90
28614;DHT22;15806;53.548;9.964;2023-07-20T04:08:47;17.90;99.90
28614;DHT22;15806;53.548;9.964;2023-07-20T04:10:28;17.90;99.90
28614;DHT22;15806;53.548;9.964;2023-07-20T04:12:08;17.90;99.90
28614;DHT22;15806;53.548;9.964;2023-07-20T04:13:49;18.00;99.90
28614;DHT22;15806;53.548;9.964;2023-07-20T04:15:30;18.00;99.90
28614;DHT22;15806;53.548;9.964;2023-07-20T04:17:11;18.00;99.90
28614;DHT22;15806;53.548;9.964;2023-07-20T04:18:51;18.10;99.90
28614;DHT22;15806;53.548;9.964;2023-07-20T04:20:32;18.00;99.90
28614;DHT22;15806;53.548;9.964;2023-07-20T04:22:12;18.10;99.90
28614;DHT22;15806;53.548;9.964;2023-07-20T04:23:53;18.10;99.90
28614;DHT22;15806;53.548;9.964;2023-07-20T04:25:34;18.10;99.90
28614;DHT22;15806;53.548;9.964;2023-07-20T04:27:14;18.00;99.90
28614;DHT22;15806;53.548;9.964;2023-07-20T04:28:55;18.10;99.90
28614;DHT22;15806;53.548;9.964;2023-07-20T04:30:36;18.00;99.90
28614;DHT22;15806;53.548;9.964;2023-07-20T04:32:17;18.00;99.90
28614;DHT22;15806;53.548;9.964;2023-07-20T04:33:57;18.10;99.90
28614;DHT22;15806;53.548;9.964;2023-07-20T04:37:25;18.10;99.90
28614;DHT22;15806;53.548;9.964;2023-07-20T04:39:06;18.10;99.90
28614;DHT22;15806;53.548;9.964;2023-07-20T04:40:50;18.00;99.90
28614;DHT22;15806;53.548;9.964;2023-07-20T04:42:30;18.00;99.90
28614;DHT22;15806;53.548;9.964;2023-07-20T04:44:11;18.00;99.90
28614;DHT22;15806;53.548;9.964;2023-07-20T04:45:51;18.10;99.90
28614;DHT22;15806;53.548;9.964;2023-07-20T04:47:33;18.00;99.90
28614;DHT22;15806;53.548;9.964;2023-07-20T04:49:14;18.20;99.90
28614;DHT22;15806;53.548;9.964;2023-07-20T04:50:54;18.10;99.90
28614;DHT22;15806;53.548;9.964;2023-07-20T04:52:35;18.20;99.90
28614;DHT22;15806;53.548;9.964;2023-07-20T04:54:15;18.20;99.90
28614;DHT22;15806;53.548;9.964;2023-07-20T04:55:56;18.20;99.90
28614;DHT22;15806;53.548;9.964;2023-07-20T04:57:36;18.20;99.90
28614;DHT22;15806;53.548;9.964;2023-07-20T04:59:17;18.20;99.90
28614;DHT22;15806;53.548;9.964;2023-07-20T05:01:07;18.20;99.90
28614;DHT22;15806;53.548;9.964;2023-07-20T05:02:48;18.20;99.90
28614;DHT22;15806;53.548;9.964;2023-07-20T05:04:28;18.30;99.90
28614;DHT22;15806;53.548;9.964;2023-07-20T05:06:09;18.30;99.90
28614;DHT22;15806;53.548;9.964;2023-07-20T05:07:50;18.30;99.90
28614;DHT22;15806;53.548;9.964;2023-07-20T05:09:30;18.30;99.90
28614;DHT22;15806;53.548;9.964;2023-07-20T05:11:11;18.30;99.90
28614;DHT22;15806;53.548;9.964;2023-07-20T05:12:52;18.30;99.90
28614;DHT22;15806;53.548;9.964;2023-07-20T05:14:32;18.30;99.90
28614;DHT22;15806;53.548;9.964;2023-07-20T05:16:13;18.30;99.90
28614;DHT22;15806;53.548;9.964;2023-07-20T05:17:53;18.30;99.90
28614;DHT22;15806;53.548;9.964;2023-07-20T05:19:34;18.40;99.90
28614;DHT22;15806;53.548;9.964;2023-07-20T05:21:14;18.30;99.90
28614;DHT22;15806;53.548;9.964;2023-07-20T05:22:55;18.30;99.90
28614;DHT22;15806;53.548;9.964;2023-07-20T05:24:35;18.30;99.90
28614;DHT22;15806;53.548;9.964;2023-07-20T05:26:16;18.20;99.90
28614;DHT22;15806;53.548;9.964;2023-07-20T05:27:57;18.30;99.90
28614;DHT22;15806;53.548;9.964;2023-07-20T05:29:37;18.40;99.90
28614;DHT22;15806;53.548;9.964;2023-07-20T05:31:18;18.50;99.90
28614;DHT22;15806;53.548;9.964;2023-07-20T05:32:58;18.40;99.90
28614;DHT22;15806;53.548;9.964;2023-07-20T05:34:39;18.40;99.90
28614;DHT22;15806;53.548;9.964;2023-07-20T05:36:20;18.40;99.90
28614;DHT22;15806;53.548;9.964;2023-07-20T05:38:00;18.30;99.90
28614;DHT22;15806;53.548;9.964;2023-07-20T05:39:41;18.20;99.90
28614;DHT22;15806;53.548;9.964;2023-07-20T05:41:21;18.10;99.90
28614;DHT22;15806;53.548;9.964;2023-07-20T05:43:02;18.30;99.90
28614;DHT22;15806;53.548;9.964;2023-07-20T05:44:42;18.30;99.90
28614;DHT22;15806;53.548;9.964;2023-07-20T05:46:23;18.30;99.90
28614;DHT22;15806;53.548;9.964;2023-07-20T05:48:04;18.30;99.90
28614;DHT22;15806;53.548;9.964;2023-07-20T05:49:46;18.20;99.90
28614;DHT22;15806;53.548;9.964;2023-07-20T05:51:26;18.20;99.90
28614;DHT22;15806;53.548;9.964;2023-07-20T05:53:06;18.20;99.90
28614;DHT22;15806;53.548;9.964;2023-07-20T05:54:47;18.20;99.90
28614;DHT22;15806;53.548;9.964;2023-07-20T05:56:28;18.20;99.90
28614;DHT22;15806;53.548;9.964;2023-07-20T05:58:08;18.20;99.90
28614;DHT22;15806;53.548;9.964;2023-07-20T05:59:49;18.20;99.90
28614;DHT22;15806;53.548;9.964;2023-07-20T06:01:29;18.10;99.90
28614;DHT22;15806;53.548;9.964;2023-07-20T06:03:10;18.10;99.90
28614;DHT22;15806;53.548;9.964;2023-07-20T06:04:50;18.00;99.90
28614;DHT22;15806;53.548;9.964;2023-07-20T06:06:31;18.00;99.90
28614;DHT22;15806;53.548;9.964;2023-07-20T06:08:11;18.00;99.90
28614;DHT22;15806;53.548;9.964;2023-07-20T06:09:52;18.10;99.90
28614;DHT22;15806;53.548;9.964;2023-07-20T06:11:33;18.20;99.90
28614;DHT22;15806;53.548;9.964;2023-07-20T06:13:13;18.20;99.90
28614;DHT22;15806;53.548;9.964;2023-07-20T06:14:54;18.20;99.90
28614;DHT22;15806;53.548;9.964;2023-07-20T06:16:34;18.20;99.90
28614;DHT22;15806;53.548;9.964;2023-07-20T06:18:15;17.90;99.90
28614;DHT22;15806;53.548;9.964;2023-07-20T06:19:56;17.50;99.90
28614;DHT22;15806;53.548;9.964;2023-07-20T06:21:36;17.40;99.90
28614;DHT22;15806;53.548;9.964;2023-07-20T06:23:18;17.40;99.90
28614;DHT22;15806;53.548;9.964;2023-07-20T06:24:59;17.40;99.90
28614;DHT22;15806;53.548;9.964;2023-07-20T06:26:40;17.30;99.90
28614;DHT22;15806;53.548;9.964;2023-07-20T06:28:20;17.30;99.90
28614;DHT22;15806;53.548;9.964;2023-07-20T06:30:01;17.30;99.90
28614;DHT22;15806;53.548;9.964;2023-07-20T06:31:41;17.10;99.90
28614;DHT22;15806;53.548;9.964;2023-07-20T06:33:22;17.20;99.90
28614;DHT22;15806;53.548;9.964;2023-07-20T06:35:03;17.40;99.90
28614;DHT22;15806;53.548;9.964;2023-07-20T06:36:43;17.40;99.90
28614;DHT22;15806;53.548;9.964;2023-07-20T06:38:24;17.40;99.90
28614;DHT22;15806;53.548;9.964;2023-07-20T06:40:05;17.40;99.90
28614;DHT22;15806;53.548;9.964;2023-07-20T06:41:46;17.30;99.90
28614;DHT22;15806;53.548;9.964;2023-07-20T06:43:26;17.10;99.90
28614;DHT22;15806;53.548;9.964;2023-07-20T06:45:07;16.90;99.90
28614;DHT22;15806;53.548;9.964;2023-07-20T06:46:48;16.80;99.90
28614;DHT22;15806;53.548;9.964;2023-07-20T06:48:28;16.80;99.90
28614;DHT22;15806;53.548;9.964;2023-07-20T06:50:10;16.80;99.90
28614;DHT22;15806;53.548;9.964;2023-07-20T06:51:50;16.80;99.90
28614;DHT22;15806;53.548;9.964;2023-07-20T06:53:31;16.80;99.90
28614;DHT22;15806;53.548;9.964;2023-07-20T06:55:12;17.20;99.90
28614;DHT22;15806;53.548;9.964;2023-07-20T06:56:53;18.20;99.90
28614;DHT22;15806;53.548;9.964;2023-07-20T06:58:33;18.70;99.90
28614;DHT22;15806;53.548;9.964;2023-07-20T07:00:14;18.40;99.90
28614;DHT22;15806;53.548;9.964;2023-07-20T07:01:55;17.80;99.90
28614;DHT22;15806;53.548;9.964;2023-07-20T07:03:35;17.50;99.90
28614;DHT22;15806;53.548;9.964;2023-07-20T07:05:16;17.90;99.90
28614;DHT22;15806;53.548;9.964;2023-07-20T07:06:56;18.10;99.90
28614;DHT22;15806;53.548;9.964;2023-07-20T07:08:37;18.30;99.90
28614;DHT22;15806;53.548;9.964;2023-07-20T07:10:18;19.20;99.90
28614;DHT22;15806;53.548;9.964;2023-07-20T07:11:58;19.40;99.90
28614;DHT22;15806;53.548;9.964;2023-07-20T07:13:39;18.90;99.90
28614;DHT22;15806;53.548;9.964;2023-07-20T07:15:19;18.80;99.90
28614;DHT22;15806;53.548;9.964;2023-07-20T07:17:00;19.70;99.90
28614;DHT22;15806;53.548;9.964;2023-07-20T07:18:41;20.70;99.90
28614;DHT22;15806;53.548;9.964;2023-07-20T07:20:21;21.20;99.90
28614;DHT22;15806;53.548;9.964;2023-07-20T07:22:02;21.90;99.90
28614;DHT22;15806;53.548;9.964;2023-07-20T07:23:43;22.60;74.20
28614;DHT22;15806;53.548;9.964;2023-07-20T07:25:24;21.90;1.00
28614;DHT22;15806;53.548;9.964;2023-07-20T07:27:04;21.20;1.00
28614;DHT22;15806;53.548;9.964;2023-07-20T07:28:45;21.30;99.90
28614;DHT22;15806;53.548;9.964;2023-07-20T07:30:26;21.30;99.90
28614;DHT22;15806;53.548;9.964;2023-07-20T07:32:07;21.80;1.00
28614;DHT22;15806;53.548;9.964;2023-07-20T07:33:47;22.00;99.90
28614;DHT22;15806;53.548;9.964;2023-07-20T07:35:28;20.80;99.90
28614;DHT22;15806;53.548;9.964;2023-07-20T07:37:08;19.70;1.00
28614;DHT22;15806;53.548;9.964;2023-07-20T07:38:49;18.80;99.90
28614;DHT22;15806;53.548;9.964;2023-07-20T07:40:30;18.20;1.00
28614;DHT22;15806;53.548;9.964;2023-07-20T07:42:11;18.60;1.00
28614;DHT22;15806;53.548;9.964;2023-07-20T07:43:52;18.20;99.90
28614;DHT22;15806;53.548;9.964;2023-07-20T07:45:34;17.80;99.90
28614;DHT22;15806;53.548;9.964;2023-07-20T07:47:15;18.30;99.90
28614;DHT22;15806;53.548;9.964;2023-07-20T07:48:56;19.90;99.90
28614;DHT22;15806;53.548;9.964;2023-07-20T07:50:36;21.40;99.90
28614;DHT22;15806;53.548;9.964;2023-07-20T07:52:17;22.10;99.90
28614;DHT22;15806;53.548;9.964;2023-07-20T07:53:57;22.70;1.00
28614;DHT22;15806;53.548;9.964;2023-07-20T07:55:38;23.00;99.90
28614;DHT22;15806;53.548;9.964;2023-07-20T07:57:18;23.70;90.40
28614;DHT22;15806;53.548;9.964;2023-07-20T07:58:59;23.60;1.00
28614;DHT22;15806;53.548;9.964;2023-07-20T08:00:39;24.00;1.00
28614;DHT22;15806;53.548;9.964;2023-07-20T08:02:20;24.30;1.00
28614;DHT22;15806;53.548;9.964;2023-07-20T08:04:01;23.20;1.00
28614;DHT22;15806;53.548;9.964;2023-07-20T08:05:41;23.80;1.00
28614;DHT22;15806;53.548;9.964;2023-07-20T08:07:22;24.50;1.00
28614;DHT22;15806;53.548;9.964;2023-07-20T08:09:03;23.80;1.00
28614;DHT22;15806;53.548;9.964;2023-07-20T08:10:44;24.20;1.00
28614;DHT22;15806;53.548;9.964;2023-07-20T08:12:24;23.20;1.00
28614;DHT22;15806;53.548;9.964;2023-07-20T08:14:05;22.40;1.00
28614;DHT22;15806;53.548;9.964;2023-07-20T08:15:49;22.90;1.00
28614;DHT22;15806;53.548;9.964;2023-07-20T08:17:30;21.70;1.00
28614;DHT22;15806;53.548;9.964;2023-07-20T08:19:12;20.50;1.00
28614;DHT22;15806;53.548;9.964;2023-07-20T08:20:52;20.00;99.90
28614;DHT22;15806;53.548;9.964;2023-07-20T08:22:33;22.00;99.90
28614;DHT22;15806;53.548;9.964;2023-07-20T08:24:14;24.00;1.00
28614;DHT22;15806;53.548;9.964;2023-07-20T08:25:54;25.10;1.00
28614;DHT22;15806;53.548;9.964;2023-07-20T08:27:36;25.80;99.90
28614;DHT22;15806;53.548;9.964;2023-07-20T08:29:16;26.50;99.90
28614;DHT22;15806;53.548;9.964;2023-07-20T08:30:57;26.80;99.90
28614;DHT22;15806;53.548;9.964;2023-07-20T08:32:38;27.40;99.90
28614;DHT22;15806;53.548;9.964;2023-07-20T08:34:18;27.70;99.90
28614;DHT22;15806;53.548;9.964;2023-07-20T08:36:00;27.80;99.90
28614;DHT22;15806;53.548;9.964;2023-07-20T08:37:41;26.90;99.90
28614;DHT22;15806;53.548;9.964;2023-07-20T08:39:22;26.50;99.90
28614;DHT22;15806;53.548;9.964;2023-07-20T08:41:02;25.20;99.90
28614;DHT22;15806;53.548;9.964;2023-07-20T08:42:43;23.70;99.90
28614;DHT22;15806;53.548;9.964;2023-07-20T08:44:25;22.20;99.90
28614;DHT22;15806;53.548;9.964;2023-07-20T08:46:06;21.20;1.00
28614;DHT22;15806;53.548;9.964;2023-07-20T08:47:47;20.60;1.00
28614;DHT22;15806;53.548;9.964;2023-07-20T08:49:32;19.80;1.00
28614;DHT22;15806;53.548;9.964;2023-07-20T08:51:14;19.30;99.90
28614;DHT22;15806;53.548;9.964;2023-07-20T08:52:57;18.80;1.00
28614;DHT22;15806;53.548;9.964;2023-07-20T08:54:39;18.70;1.00
28614;DHT22;15806;53.548;9.964;2023-07-20T08:56:20;19.00;80.70
28614;DHT22;15806;53.548;9.964;2023-07-20T08:58:01;21.10;1.00
28614;DHT22;15806;53.548;9.964;2023-07-20T08:59:44;22.90;99.90
28614;DHT22;15806;53.548;9.964;2023-07-20T09:01:25;24.90;1.00
28614;DHT22;15806;53.548;9.964;2023-07-20T09:03:07;25.80;99.90
28614;DHT22;15806;53.548;9.964;2023-07-20T09:04:48;25.50;99.90
28614;DHT22;15806;53.548;9.964;2023-07-20T09:06:29;26.30;99.90
28614;DHT22;15806;53.548;9.964;2023-07-20T09:08:10;27.00;99.90
28614;DHT22;15806;53.548;9.964;2023-07-20T09:09:51;26.30;99.90
28614;DHT22;15806;53.548;9.964;2023-07-20T09:11:34;26.50;99.90
28614;DHT22;15806;53.548;9.964;2023-07-20T09:13:15;25.00;99.90
28614;DHT22;15806;53.548;9.964;2023-07-20T09:14:57;25.90;99.90
28614;DHT22;15806;53.548;9.964;2023-07-20T09:16:53;26.20;99.90
28614;DHT22;15806;53.548;9.964;2023-07-20T09:18:34;24.50;99.90
28614;DHT22;15806;53.548;9.964;2023-07-20T09:20:18;24.20;99.90
28614;DHT22;15806;53.548;9.964;2023-07-20T09:21:59;22.70;99.90
28614;DHT22;15806;53.548;9.964;2023-07-20T09:23:39;21.60;99.90
28614;DHT22;15806;53.548;9.964;2023-07-20T09:25:20;21.70;99.90
28614;DHT22;15806;53.548;9.964;2023-07-20T09:27:01;21.80;1.00
28614;DHT22;15806;53.548;9.964;2023-07-20T09:28:47;21.10;1.00
28614;DHT22;15806;53.548;9.964;2023-07-20T09:30:28;21.00;1.00
28614;DHT22;15806;53.548;9.964;2023-07-20T09:32:08;20.60;1.00
28614;DHT22;15806;53.548;9.964;2023-07-20T09:33:51;19.60;99.90
28614;DHT22;15806;53.548;9.964;2023-07-20T09:35:32;19.00;1.00
28614;DHT22;15806;53.548;9.964;2023-07-20T09:37:22;18.50;99.90
28614;DHT22;15806;53.548;9.964;2023-07-20T09:39:04;17.70;1.00
28614;DHT22;15806;53.548;9.964;2023-07-20T09:40:44;17.40;1.00
28614;DHT22;15806;53.548;9.964;2023-07-20T09:42:26;17.20;26.60
28614;DHT22;15806;53.548;9.964;2023-07-20T09:44:07;17.30;32.00
28614;DHT22;15806;53.548;9.964;2023-07-20T09:45:47;17.50;1.00
28614;DHT22;15806;53.548;9.964;2023-07-20T09:47:28;17.60;99.90
28614;DHT22;15806;53.548;9.964;2023-07-20T09:49:09;17.80;99.90
28614;DHT22;15806;53.548;9.964;2023-07-20T09:50:50;18.00;15.10
28614;DHT22;15806;53.548;9.964;2023-07-20T09:52:31;18.20;1.00
28614;DHT22;15806;53.548;9.964;2023-07-20T09:54:13;18.20;1.00
28614;DHT22;15806;53.548;9.964;2023-07-20T09:55:54;18.40;1.00
28614;DHT22;15806;53.548;9.964;2023-07-20T09:57:35;18.00;99.90
28614;DHT22;15806;53.548;9.964;2023-07-20T09:59:16;17.90;1.00
28614;DHT22;15806;53.548;9.964;2023-07-20T10:00:57;17.70;99.90
28614;DHT22;15806;53.548;9.964;2023-07-20T10:02:43;17.40;99.90
28614;DHT22;15806;53.548;9.964;2023-07-20T10:04:24;17.40;1.00
28614;DHT22;15806;53.548;9.964;2023-07-20T10:06:07;17.50;1.00
28614;DHT22;15806;53.548;9.964;2023-07-20T10:07:50;17.70;99.90
28614;DHT22;15806;53.548;9.964;2023-07-20T10:09:34;17.80;1.00
28614;DHT22;15806;53.548;9.964;2023-07-20T10:11:19;18.10;99.90
28614;DHT22;15806;53.548;9.964;2023-07-20T10:13:02;18.50;1.00
28614;DHT22;15806;53.548;9.964;2023-07-20T10:14:53;18.70;1.00
28614;DHT22;15806;53.548;9.964;2023-07-20T10:16:35;19.10;99.90
28614;DHT22;15806;53.548;9.964;2023-07-20T10:18:27;19.20;99.90
28614;DHT22;15806;53.548;9.964;2023-07-20T10:20:10;19.10;1.00
28614;DHT22;15806;53.548;9.964;2023-07-20T10:21:52;18.90;1.00
28614;DHT22;15806;53.548;9.964;2023-07-20T10:23:36;19.10;97.50
28614;DHT22;15806;53.548;9.964;2023-07-20T10:25:18;19.10;1.00
28614;DHT22;15806;53.548;9.964;2023-07-20T10:27:01;19.00;99.90
28614;DHT22;15806;53.548;9.964;2023-07-20T10:28:42;18.70;99.90
28614;DHT22;15806;53.548;9.964;2023-07-20T10:30:25;18.80;99.90
28614;DHT22;15806;53.548;9.964;2023-07-20T10:32:07;18.70;99.90
28614;DHT22;15806;53.548;9.964;2023-07-20T10:33:48;18.90;1.00
28614;DHT22;15806;53.548;9.964;2023-07-20T10:35:29;19.00;1.00
28614;DHT22;15806;53.548;9.964;2023-07-20T10:37:09;19.20;1.00
28614;DHT22;15806;53.548;9.964;2023-07-20T10:38:57;19.50;1.00
28614;DHT22;15806;53.548;9.964;2023-07-20T10:40:40;19.80;1.00
28614;DHT22;15806;53.548;9.964;2023-07-20T10:42:21;19.70;99.90
28614;DHT22;15806;53.548;9.964;2023-07-20T10:44:07;19.60;99.90
28614;DHT22;15806;53.548;9.964;2023-07-20T10:45:49;19.50;99.90
28614;DHT22;15806;53.548;9.964;2023-07-20T10:47:45;19.40;99.90
28614;DHT22;15806;53.548;9.964;2023-07-20T10:49:27;19.40;99.90
28614;DHT22;15806;53.548;9.964;2023-07-20T10:51:08;19.20;99.90
28614;DHT22;15806;53.548;9.964;2023-07-20T10:53:05;19.10;99.90
28614;DHT22;15806;53.548;9.964;2023-07-20T10:54:50;19.10;99.90
28614;DHT22;15806;53.548;9.964;2023-07-20T10:56:30;19.30;1.00
28614;DHT22;15806;53.548;9.964;2023-07-20T10:58:12;19.30;1.00